createdAt,value
2023-04-01T00:01:22.375Z,9.97
2023-04-01T00:03:51.947Z,9.95
2023-04-01T00:06:20.717Z,9.99
2023-04-01T00:08:49.027Z,10.04
2023-04-01T00:11:20.626Z,10.07
2023-04-01T00:13:49.285Z,10.06
2023-04-01T00:16:22.048Z,10.04
2023-04-01T00:18:51.715Z,10.02
2023-04-01T00:21:20.118Z,10.01
2023-04-01T00:23:49.571Z,10.04
2023-04-01T00:26:20.178Z,10.08
2023-04-01T00:28:49.036Z,10.10
2023-04-01T00:31:17.361Z,10.10
2023-04-01T00:33:45.913Z,10.08
2023-04-01T00:36:15.675Z,10.04
2023-04-01T00:38:46.036Z,10.03
2023-04-01T00:41:16.589Z,10.06
2023-04-01T00:43:47.930Z,10.12
2023-04-01T00:46:16.341Z,10.17
2023-04-01T00:48:50.417Z,10.18
2023-04-01T00:51:21.802Z,10.18
2023-04-01T00:53:53.610Z,10.20
2023-04-01T00:56:43.040Z,10.22
2023-04-01T00:59:14.451Z,10.29
2023-04-01T01:01:43.040Z,10.35
2023-04-01T01:04:26.779Z,10.36
2023-04-01T01:07:10.219Z,10.36
2023-04-01T01:09:55.508Z,10.33
2023-04-01T01:12:54.151Z,10.33
2023-04-01T01:15:37.711Z,10.41
2023-04-01T01:18:24.436Z,10.49
2023-04-01T01:21:21.862Z,10.57
2023-04-01T01:24:08.273Z,10.60
2023-04-01T01:26:55.298Z,10.63
2023-04-01T01:29:35.851Z,10.59
2023-04-01T01:32:22.661Z,10.52
2023-04-01T01:35:21.658Z,10.53
2023-04-01T01:37:53.537Z,10.55
2023-04-01T01:40:22.616Z,10.53
2023-04-01T01:42:53.286Z,10.51
2023-04-01T01:45:22.863Z,10.46
2023-04-01T01:47:51.566Z,10.42
2023-04-01T01:50:20.783Z,10.42
2023-04-01T01:52:48.931Z,10.45
2023-04-01T01:55:38.998Z,10.46
2023-04-01T01:58:41.500Z,10.45
2023-04-01T02:01:33.246Z,10.42
2023-04-01T02:04:09.093Z,10.38
2023-04-01T02:06:40.585Z,10.37
2023-04-01T02:09:11.712Z,10.41
2023-04-01T02:11:45.263Z,10.46
2023-04-01T02:14:26.130Z,10.48
2023-04-01T02:17:01.588Z,10.45
2023-04-01T02:19:39.958Z,10.42
2023-04-01T02:22:11.749Z,10.40
2023-04-01T02:24:40.050Z,10.38
2023-04-01T02:27:11.065Z,10.43
2023-04-01T02:29:41.518Z,10.52
2023-04-01T02:32:09.985Z,10.57
2023-04-01T02:34:39.095Z,10.58
2023-04-01T02:37:07.247Z,10.59
2023-04-01T02:39:36.239Z,10.61
2023-04-01T02:42:04.517Z,10.63
2023-04-01T02:44:33.610Z,10.66
2023-04-01T02:47:02.139Z,10.68
2023-04-01T02:49:30.896Z,10.72
2023-04-01T02:51:59.531Z,10.75
2023-04-01T02:54:28.058Z,10.74
2023-04-01T02:56:56.678Z,10.70
2023-04-01T02:59:25.325Z,10.65
2023-04-01T03:01:53.442Z,10.65
2023-04-01T03:04:21.794Z,10.68
2023-04-01T03:06:51.080Z,10.66
2023-04-01T03:09:19.766Z,10.58
2023-04-01T03:11:48.009Z,10.51
2023-04-01T03:14:17.346Z,10.46
2023-04-01T03:16:46.360Z,10.47
2023-04-01T03:19:14.924Z,10.54
2023-04-01T03:21:43.469Z,10.59
2023-04-01T03:24:12.086Z,10.58
2023-04-01T03:26:44.147Z,10.56
2023-04-01T03:29:12.734Z,10.53
2023-04-01T03:31:40.774Z,10.48
2023-04-01T03:34:10.209Z,10.48
2023-04-01T03:36:38.405Z,10.49
2023-04-01T03:39:13.263Z,10.52
2023-04-01T03:41:42.521Z,10.51
2023-04-01T03:44:10.847Z,10.45
2023-04-01T03:46:40.487Z,10.35
2023-04-01T03:49:12.967Z,10.28
2023-04-01T03:51:45.003Z,10.28
2023-04-01T03:54:13.331Z,10.32
2023-04-01T03:56:41.904Z,10.33
2023-04-01T03:59:12.759Z,10.28
2023-04-01T04:01:41.329Z,10.23
2023-04-01T04:04:14.394Z,10.19
2023-04-01T04:06:45.979Z,10.13
2023-04-01T04:09:14.965Z,10.14
2023-04-01T04:11:43.176Z,10.20
2023-04-01T04:14:12.339Z,10.25
2023-04-01T04:16:41.537Z,10.26
2023-04-01T04:19:10.531Z,10.23
2023-04-01T04:21:38.605Z,10.18
2023-04-01T04:24:07.606Z,10.16
2023-04-01T04:26:56.566Z,10.21
2023-04-01T04:29:24.852Z,10.25
2023-04-01T04:31:53.295Z,10.23
2023-04-01T04:34:23.656Z,10.19
2023-04-01T04:36:52.027Z,10.14
2023-04-01T04:39:20.604Z,10.09
2023-04-01T04:41:50.525Z,10.08
2023-04-01T04:44:20.646Z,10.12
2023-04-01T04:46:49.171Z,10.17
2023-04-01T04:49:18.321Z,10.21
2023-04-01T04:51:47.463Z,10.22
2023-04-01T04:54:16.516Z,10.23
2023-04-01T04:56:54.692Z,10.20
2023-04-01T04:59:26.480Z,10.21
2023-04-01T05:02:07.595Z,10.22
2023-04-01T05:04:37.855Z,10.20
2023-04-01T05:07:08.396Z,10.16
2023-04-01T05:09:40.068Z,10.14
2023-04-01T05:12:08.775Z,10.10
2023-04-01T05:14:55.083Z,10.13
2023-04-01T05:17:24.084Z,10.20
2023-04-01T05:19:53.887Z,10.25
2023-04-01T05:22:22.676Z,10.28
2023-04-01T05:24:51.147Z,10.30
2023-04-01T05:27:19.815Z,10.30
2023-04-01T05:29:54.361Z,10.31
2023-04-01T05:32:38.706Z,10.38
2023-04-01T05:35:08.301Z,10.48
2023-04-01T05:37:36.579Z,10.57
2023-04-01T05:40:07.034Z,10.62
2023-04-01T05:42:36.931Z,10.64
2023-04-01T05:45:07.769Z,10.62
2023-04-01T05:48:00.756Z,10.61
2023-04-01T05:50:30.950Z,10.68
2023-04-01T05:52:59.127Z,10.76
2023-04-01T05:55:27.708Z,10.83
2023-04-01T05:57:56.489Z,10.87
2023-04-01T06:00:24.868Z,10.90
2023-04-01T06:02:54.943Z,10.94
2023-04-01T06:05:30.262Z,11.01
2023-04-01T06:08:02.494Z,11.09
2023-04-01T06:10:53.228Z,11.11
2023-04-01T06:13:28.743Z,11.11
2023-04-01T06:16:28.522Z,11.09
2023-04-01T06:19:00.637Z,11.06
2023-04-01T06:21:51.210Z,11.14
2023-04-01T06:24:27.803Z,11.24
2023-04-01T06:27:20.846Z,11.26
2023-04-01T06:30:08.338Z,11.25
2023-04-01T06:32:58.865Z,11.23
2023-04-01T06:35:51.408Z,11.24
2023-04-01T06:38:28.279Z,11.33
2023-04-01T06:41:24.244Z,11.47
2023-04-01T06:44:27.583Z,11.61
2023-04-01T06:47:50.254Z,11.70
2023-04-01T06:50:58.446Z,11.82
2023-04-01T06:53:55.145Z,11.89
2023-04-01T06:56:44.006Z,11.96
2023-04-01T06:59:23.851Z,12.04
2023-04-01T07:01:54.790Z,12.10
2023-04-01T07:04:27.147Z,12.20
2023-04-01T07:07:04.858Z,12.27
2023-04-01T07:09:41.802Z,12.33
2023-04-01T07:12:44.312Z,12.40
2023-04-01T07:16:10.251Z,12.58
2023-04-01T07:18:54.254Z,12.81
2023-04-01T07:21:33.760Z,13.01
2023-04-01T07:24:10.237Z,13.10
2023-04-01T07:26:43.976Z,13.21
2023-04-01T07:29:16.561Z,13.29
2023-04-01T07:32:05.851Z,13.36
2023-04-01T07:34:44.573Z,13.42
2023-04-01T07:37:14.918Z,13.47
2023-04-01T07:40:05.706Z,13.53
2023-04-01T07:42:45.763Z,13.62
2023-04-01T07:45:46.431Z,13.69
2023-04-01T07:48:40.729Z,13.80
2023-04-01T07:51:27.500Z,13.89
2023-04-01T07:53:59.782Z,14.00
2023-04-01T07:57:01.805Z,14.11
2023-04-01T08:00:12.689Z,14.17
2023-04-01T08:02:54.157Z,14.17
2023-04-01T08:05:32.168Z,14.19
2023-04-01T08:08:02.939Z,14.22
2023-04-01T08:11:04.096Z,14.25
2023-04-01T08:14:12.604Z,14.23
2023-04-01T08:17:04.128Z,14.34
2023-04-01T08:20:07.424Z,14.47
2023-04-01T08:22:43.072Z,14.54
2023-04-01T08:25:25.992Z,14.52
2023-04-01T08:28:05.751Z,14.46
2023-04-01T08:30:43.149Z,14.44
2023-04-01T08:33:21.029Z,14.43
2023-04-01T08:36:05.013Z,14.42
2023-04-01T08:38:44.010Z,14.37
2023-04-01T08:41:40.812Z,14.34
2023-04-01T08:44:39.745Z,14.28
2023-04-01T08:47:39.372Z,14.22
2023-04-01T08:50:29.752Z,14.15
2023-04-01T08:53:33.581Z,14.19
2023-04-01T08:56:22.009Z,14.26
2023-04-01T08:59:13.882Z,14.31
2023-04-01T09:02:05.980Z,14.32
2023-04-01T09:05:23.336Z,14.32
2023-04-01T09:08:17.306Z,14.33
2023-04-01T09:10:51.913Z,14.32
2023-04-01T09:14:28.897Z,14.28
2023-04-01T09:17:20.574Z,14.22
2023-04-01T09:20:18.856Z,14.16
2023-04-01T09:23:02.651Z,14.12
2023-04-01T09:25:53.340Z,14.15
2023-04-01T09:28:39.864Z,14.28
2023-04-01T09:31:21.796Z,14.47
2023-04-01T09:34:36.732Z,14.68
2023-04-01T09:37:19.091Z,14.85
2023-04-01T09:40:16.930Z,15.03
2023-04-01T09:43:15.605Z,15.23
2023-04-01T09:45:53.532Z,15.45
2023-04-01T09:48:31.972Z,15.62
2023-04-01T09:51:31.941Z,15.74
2023-04-01T09:54:28.580Z,15.80
2023-04-01T09:57:20.574Z,15.91
2023-04-01T10:00:14.184Z,16.02
2023-04-01T10:03:12.606Z,16.03
2023-04-01T10:06:05.364Z,16.05
2023-04-01T10:08:59.083Z,16.08
2023-04-01T10:11:45.898Z,16.10
2023-04-01T10:14:28.565Z,16.09
2023-04-01T10:17:23.398Z,16.09
2023-04-01T10:20:27.937Z,16.13
2023-04-01T10:23:16.436Z,16.17
2023-04-01T10:26:17.022Z,16.17
2023-04-01T10:28:49.296Z,16.21
2023-04-01T10:32:18.456Z,16.28
2023-04-01T10:34:57.627Z,16.38
2023-04-01T10:37:54.280Z,16.47
2023-04-01T10:40:31.881Z,16.54
2023-04-01T10:43:43.375Z,16.60
2023-04-01T10:46:22.999Z,16.66
2023-04-01T10:49:03.200Z,16.76
2023-04-01T10:51:47.198Z,16.88
2023-04-01T10:54:55.545Z,17.04
2023-04-01T10:58:09.754Z,17.20
2023-04-01T11:01:11.141Z,17.31
2023-04-01T11:04:53.335Z,17.44
2023-04-01T11:08:04.933Z,17.54
2023-04-01T11:22:32.265Z,17.67
2023-04-01T11:25:35.627Z,17.97
2023-04-01T11:28:42.894Z,17.86
2023-04-01T11:31:21.295Z,17.74
2023-04-01T11:34:04.294Z,17.67
2023-04-01T11:36:53.596Z,17.60
2023-04-01T11:39:54.799Z,17.55
2023-04-01T11:43:32.426Z,17.58
2023-04-01T11:47:02.572Z,17.58
2023-04-01T11:49:38.193Z,17.54
2023-04-01T11:52:37.095Z,17.51
2023-04-01T11:55:36.503Z,17.46
2023-04-01T11:58:13.678Z,17.43
2023-04-01T12:01:13.916Z,17.42
2023-04-01T12:03:42.610Z,17.49
2023-04-01T12:06:46.609Z,17.61
2023-04-01T12:09:26.644Z,17.79
2023-04-01T12:12:24.906Z,17.96
2023-04-01T12:15:22.197Z,18.07
2023-04-01T12:18:16.797Z,18.07
2023-04-01T12:20:56.965Z,18.00
2023-04-01T12:23:44.473Z,17.96
2023-04-01T12:26:44.393Z,17.90
2023-04-01T12:29:15.447Z,17.81
2023-04-01T12:32:02.194Z,17.76
2023-04-01T12:34:54.107Z,17.75
2023-04-01T12:38:15.709Z,17.74
2023-04-01T12:40:48.287Z,17.76
2023-04-01T12:43:27.574Z,17.77
2023-04-01T12:46:30.245Z,17.80
2023-04-01T12:49:04.830Z,17.79
2023-04-01T12:51:50.200Z,17.75
2023-04-01T12:54:40.601Z,17.74
2023-04-01T12:57:31.226Z,17.76
2023-04-01T13:00:24.564Z,17.78
2023-04-01T13:03:15.879Z,17.83
2023-04-01T13:05:44.371Z,17.90
2023-04-01T13:08:34.262Z,17.96
2023-04-01T13:11:22.031Z,17.96
2023-04-01T13:14:24.988Z,17.90
2023-04-01T13:17:02.207Z,17.79
2023-04-01T13:19:44.754Z,17.70
2023-04-01T13:22:19.400Z,17.58
2023-04-01T13:24:54.387Z,17.50
2023-04-01T13:27:22.607Z,17.46
2023-04-01T13:30:15.255Z,17.43
2023-04-01T13:33:02.737Z,17.39
2023-04-01T13:35:46.617Z,17.31
2023-04-01T13:38:24.624Z,17.21
2023-04-01T13:41:03.029Z,17.11
2023-04-01T13:43:54.159Z,16.99
2023-04-01T13:46:51.384Z,16.89
2023-04-01T13:49:48.154Z,16.81
2023-04-01T13:52:25.604Z,16.70
2023-04-01T13:55:14.146Z,16.65
2023-04-01T13:57:58.859Z,16.59
2023-04-01T14:00:44.286Z,16.56
2023-04-01T14:03:50.596Z,16.50
2023-04-01T14:06:44.184Z,16.45
2023-04-01T14:09:27.712Z,16.39
2023-04-01T14:12:10.782Z,16.35
2023-04-01T14:14:54.691Z,16.32
2023-04-01T14:17:31.462Z,16.29
2023-04-01T14:20:49.316Z,16.27
2023-04-01T14:23:25.681Z,16.26
2023-04-01T14:26:02.990Z,16.22
2023-04-01T14:28:47.713Z,16.21
2023-04-01T14:31:31.984Z,16.18
2023-04-01T14:34:06.901Z,16.13
2023-04-01T14:36:43.071Z,16.09
2023-04-01T14:39:42.673Z,16.04
2023-04-01T14:42:29.134Z,15.99
2023-04-01T14:45:39.736Z,15.95
2023-04-01T14:48:25.484Z,15.89
2023-04-01T14:50:55.807Z,15.85
2023-04-01T14:53:27.253Z,15.85
2023-04-01T14:55:59.904Z,15.84
2023-04-01T14:58:47.210Z,15.84
2023-04-01T15:01:34.271Z,15.83
2023-04-01T15:04:12.227Z,15.82
2023-04-01T15:07:03.562Z,15.79
2023-04-01T15:09:40.087Z,15.75
2023-04-01T15:12:24.767Z,15.72
2023-04-01T15:15:57.836Z,15.71
2023-04-01T15:19:01.866Z,15.70
2023-04-01T15:21:41.029Z,15.64
2023-04-01T15:24:18.867Z,15.56
2023-04-01T15:27:13.360Z,15.50
2023-04-01T15:29:49.167Z,15.43
2023-04-01T15:32:38.764Z,15.33
2023-04-01T15:35:15.842Z,15.22
2023-04-01T15:38:43.914Z,15.12
2023-04-01T15:41:30.217Z,15.03
2023-04-01T15:43:58.911Z,14.96
2023-04-01T15:46:44.582Z,14.90
2023-04-01T15:49:32.423Z,14.82
2023-04-01T15:52:36.032Z,14.74
2023-04-01T15:55:27.068Z,14.66
2023-04-01T15:58:05.817Z,14.60
2023-04-01T16:01:08.483Z,14.55
2023-04-01T16:04:09.049Z,14.57
2023-04-01T16:07:16.773Z,14.62
2023-04-01T16:09:51.517Z,14.65
2023-04-01T16:12:43.953Z,14.65
2023-04-01T16:15:30.716Z,14.67
2023-04-01T16:18:05.784Z,14.69
2023-04-01T16:20:57.112Z,14.70
2023-04-01T16:26:14.265Z,14.67
2023-04-01T16:29:24.935Z,14.64
2023-04-01T16:32:33.463Z,14.60
2023-04-01T16:35:40.695Z,14.55
2023-04-01T16:38:33.784Z,14.57
2023-04-01T16:41:06.157Z,14.56
2023-04-01T16:43:47.478Z,14.55
2023-04-01T16:46:32.975Z,14.54
2023-04-01T16:49:06.738Z,14.50
2023-04-01T16:51:48.932Z,14.44
2023-04-01T16:54:31.292Z,14.38
2023-04-01T16:57:11.359Z,14.32
2023-04-01T17:00:00.171Z,14.26
2023-04-01T17:02:32.392Z,14.21
2023-04-01T17:05:10.641Z,14.21
2023-04-01T17:08:03.505Z,14.19
2023-04-01T17:10:54.993Z,14.17
2023-04-01T17:13:37.210Z,14.15
2023-04-01T17:16:13.492Z,14.12
2023-04-01T17:18:44.320Z,14.05
2023-04-01T17:21:19.029Z,13.98
2023-04-01T17:24:17.253Z,13.93
2023-04-01T17:27:01.531Z,13.94
2023-04-01T17:29:47.898Z,13.96
2023-04-01T17:32:28.839Z,13.97
2023-04-01T17:35:10.749Z,13.92
2023-04-01T17:37:55.572Z,13.87
2023-04-01T17:40:32.434Z,13.81
2023-04-01T17:43:14.562Z,13.73
2023-04-01T17:45:50.671Z,13.67
2023-04-01T17:48:35.003Z,13.61
2023-04-01T17:51:16.436Z,13.63
2023-04-01T17:53:56.750Z,13.66
2023-04-01T17:56:35.595Z,13.63
2023-04-01T17:59:20.239Z,13.60
2023-04-01T18:02:25.183Z,13.56
2023-04-01T18:05:12.290Z,13.52
2023-04-01T18:08:18.975Z,13.46
2023-04-01T18:11:06.092Z,13.47
2023-04-01T18:13:34.872Z,13.49
2023-04-01T18:16:31.570Z,13.48
2023-04-01T18:19:16.727Z,13.44
2023-04-01T18:21:48.862Z,13.34
2023-04-01T18:24:20.617Z,13.27
2023-04-01T18:27:11.033Z,13.23
2023-04-01T18:29:51.747Z,13.25
2023-04-01T18:32:44.248Z,13.29
2023-04-01T18:35:51.952Z,13.35
2023-04-01T18:38:36.607Z,13.38
2023-04-01T18:41:27.359Z,13.40
2023-04-01T18:44:24.025Z,13.41
2023-04-01T18:47:16.297Z,13.36
2023-04-01T18:50:03.215Z,13.30
2023-04-01T18:52:37.305Z,13.28
2023-04-01T18:55:05.847Z,13.27
2023-04-01T18:57:51.770Z,13.26
2023-04-01T19:00:23.687Z,13.22
2023-04-01T19:03:27.331Z,13.19
2023-04-01T19:05:55.931Z,13.11
2023-04-01T19:08:29.568Z,13.03
2023-04-01T19:11:11.933Z,13.01
2023-04-01T19:14:03.763Z,13.00
2023-04-01T19:16:32.191Z,12.97
2023-04-01T19:19:11.887Z,12.94
2023-04-01T19:21:48.022Z,12.91
2023-04-01T19:24:42.403Z,12.85
2023-04-01T19:27:39.592Z,12.75
2023-04-01T19:30:19.907Z,12.67
2023-04-01T19:32:59.345Z,12.65
2023-04-01T19:36:14.912Z,12.63
2023-04-01T19:38:54.937Z,12.60
2023-04-01T19:41:42.072Z,12.53
2023-04-01T19:44:42.377Z,12.48
2023-04-01T19:47:21.373Z,12.45
2023-04-01T19:50:05.156Z,12.48
2023-04-01T19:52:42.950Z,12.51
2023-04-01T19:55:38.686Z,12.50
2023-04-01T19:58:21.951Z,12.48
2023-04-01T20:00:53.245Z,12.43
2023-04-01T20:03:40.995Z,12.37
2023-04-01T20:06:17.920Z,12.34
2023-04-01T20:08:57.092Z,12.37
2023-04-01T20:11:34.583Z,12.39
2023-04-01T20:14:11.462Z,12.39
2023-04-01T20:16:42.348Z,12.38
2023-04-01T20:19:12.955Z,12.37
2023-04-01T20:21:47.049Z,12.34
2023-04-01T20:24:15.055Z,12.35
2023-04-01T20:26:47.084Z,12.35
2023-04-01T20:29:53.551Z,12.36
2023-04-01T20:32:40.492Z,12.38
2023-04-01T20:35:22.440Z,12.41
2023-04-01T20:38:13.373Z,12.40
2023-04-01T20:40:49.970Z,12.35
2023-04-01T20:43:21.500Z,12.30
2023-04-01T20:45:52.376Z,12.22
2023-04-01T20:48:20.714Z,12.14
2023-04-01T20:50:50.755Z,12.12
2023-04-01T20:53:27.926Z,12.12
2023-04-01T20:56:14.441Z,12.15
2023-04-01T20:58:42.375Z,12.16
2023-04-01T21:01:21.161Z,12.17
2023-04-01T21:03:50.932Z,12.17
2023-04-01T21:06:44.099Z,12.17
2023-04-01T21:09:31.411Z,12.17
2023-04-01T21:12:13.207Z,12.21
2023-04-01T21:14:47.756Z,12.26
2023-04-01T21:17:36.630Z,12.30
2023-04-01T21:20:05.688Z,12.34
2023-04-01T21:22:56.224Z,12.33
2023-04-01T21:25:27.081Z,12.31
2023-04-01T21:27:58.483Z,12.29
2023-04-01T21:30:45.584Z,12.27
2023-04-01T21:33:31.603Z,12.30
2023-04-01T21:36:11.629Z,12.32
2023-04-01T21:38:59.678Z,12.33
2023-04-01T21:41:46.228Z,12.31
2023-04-01T21:44:29.205Z,12.30
2023-04-01T21:47:21.660Z,12.29
2023-04-01T21:50:24.242Z,12.28
2023-04-01T21:52:58.365Z,12.23
2023-04-01T21:55:54.878Z,12.24
2023-04-01T21:58:44.658Z,12.26
2023-04-01T22:01:37.877Z,12.31
2023-04-01T22:04:40.916Z,12.33
2023-04-01T22:07:47.795Z,12.29
2023-04-01T22:10:29.178Z,12.20
2023-04-01T22:13:18.155Z,12.10
2023-04-01T22:15:58.546Z,12.04
2023-04-01T22:18:45.414Z,12.03
2023-04-01T22:21:17.463Z,12.06
2023-04-01T22:23:49.345Z,12.08
2023-04-01T22:26:39.747Z,12.08
2023-04-01T22:29:26.094Z,12.04
2023-04-01T22:32:07.906Z,12.00
2023-04-01T22:34:44.233Z,11.95
2023-04-01T22:37:30.649Z,11.90
2023-04-01T22:40:28.267Z,11.91
2023-04-01T22:43:05.152Z,11.95
2023-04-01T22:45:55.062Z,11.97
2023-04-01T22:48:44.954Z,11.97
2023-04-01T22:51:26.095Z,11.95
2023-04-01T22:54:23.560Z,11.93
2023-04-01T22:57:09.052Z,11.89
2023-04-01T23:00:09.771Z,11.83
2023-04-01T23:02:47.077Z,11.84
2023-04-01T23:05:18.650Z,11.87
2023-04-01T23:08:05.532Z,11.90
2023-04-01T23:10:41.381Z,11.92
2023-04-01T23:13:21.766Z,11.90
2023-04-01T23:15:50.132Z,11.89
2023-04-01T23:18:37.865Z,11.87
2023-04-01T23:21:12.277Z,11.84
2023-04-01T23:23:43.426Z,11.82
2023-04-01T23:29:17.667Z,11.64
2023-04-01T23:32:06.147Z,11.83
2023-04-01T23:34:36.039Z,11.84
2023-04-01T23:37:14.534Z,11.83
2023-04-01T23:39:45.072Z,11.80
2023-04-01T23:42:27.233Z,11.82
2023-04-01T23:45:03.842Z,11.87
2023-04-01T23:47:37.465Z,11.91
2023-04-01T23:50:12.282Z,11.92
2023-04-01T23:52:47.231Z,11.91
2023-04-01T23:55:19.336Z,11.88
2023-04-01T23:58:06.828Z,11.85
